Time;durP1;ratioP1;P1;durP2;ratioP2;P2;SDS_P1;SDS_P2;PMS_P1;PMS_P2;Temp;Humidity;BMP_temperature;BMP_pressure;BME280_temperature;BME280_humidity;BME280_pressure;Samples;Min_cycle;Max_cycle;Signal;HPM_P1;HPM_P2
2021/04/04 00:01:30;;;;;;;7.75;5.15;;;179.80;1740.80;;;;;;5074155;28;20356;-74
2021/04/04 00:03:56;;;;;;;6.78;4.95;;;179.70;1766.40;;;;;;5074330;28;20456;-74
2021/04/04 00:06:23;;;;;;;6.97;5.10;;;179.70;1766.40;;;;;;5072764;28;20365;-76
2021/04/04 00:08:49;;;;;;;6.15;4.45;;;179.70;1766.40;;;;;;5074561;28;20516;-74
2021/04/04 00:11:16;;;;;;;5.93;4.63;;;179.60;1766.40;;;;;;5074051;28;20407;-76
2021/04/04 00:13:42;;;;;;;5.80;4.22;;;179.50;1792.00;;;;;;5072691;28;20499;-75
2021/04/04 00:16:09;;;;;;;6.68;4.47;;;179.50;1792.00;;;;;;5073341;28;20402;-74
2021/04/04 00:18:35;;;;;;;6.47;4.80;;;179.40;1792.00;;;;;;5073826;28;20408;-76
2021/04/04 00:21:01;;;;;;;7.88;4.60;;;179.40;1817.60;;;;;;5072537;28;20407;-76
2021/04/04 00:23:27;;;;;;;6.65;4.55;;;179.30;1817.60;;;;;;5073726;28;20432;-76
2021/04/04 00:25:53;;;;;;;6.63;4.75;;;179.30;1843.20;;;;;;5072356;28;20048;-75
2021/04/04 00:28:19;;;;;;;7.13;4.60;;;179.30;1843.20;;;;;;5073968;28;20476;-75
2021/04/04 00:30:45;;;;;;;6.72;4.20;;;179.30;1843.20;;;;;;5073737;28;20469;-74
2021/04/04 00:33:11;;;;;;;5.50;4.50;;;179.20;1817.60;;;;;;5073724;28;20413;-74
2021/04/04 00:35:37;;;;;;;6.15;4.50;;;179.20;1817.60;;;;;;5073777;28;20073;-75
2021/04/04 00:38:04;;;;;;;7.15;4.80;;;179.20;1817.60;;;;;;5073730;28;20407;-75
2021/04/04 00:40:33;;;;;;;7.22;5.13;;;154.50;1817.60;;;;;;5073685;28;20343;-74
2021/04/04 00:42:59;;;;;;;6.63;4.63;;;154.40;1843.20;;;;;;5073556;28;20455;-75
2021/04/04 00:45:28;;;;;;;5.93;4.43;;;154.40;1843.20;;;;;;5072986;28;20365;-73
2021/04/04 00:47:55;;;;;;;8.27;5.50;;;154.40;1843.20;;;;;;5073688;28;20339;-74
2021/04/04 00:50:26;;;;;;;7.60;4.93;;;154.40;1843.20;;;;;;5073544;28;20372;-75
2021/04/04 00:52:53;;;;;;;6.68;4.38;;;154.40;1843.20;;;;;;5073815;28;20388;-74
2021/04/04 00:55:21;;;;;;;10.65;5.68;;;154.30;1843.20;;;;;;5079879;28;20039;-76
2021/04/04 00:57:49;;;;;;;7.30;4.68;;;154.30;1843.20;;;;;;5093654;28;20407;-75
2021/04/04 01:00:17;;;;;;;7.55;4.97;;;154.30;1843.20;;;;;;5093949;28;20387;-75
2021/04/04 01:02:44;;;;;;;7.07;4.88;;;154.30;1843.20;;;;;;5093525;28;20433;-74
2021/04/04 01:05:15;;;;;;;10.25;5.45;;;154.30;1843.20;;;;;;5093863;28;20418;-74
2021/04/04 01:07:44;;;;;;;7.13;5.13;;;154.30;1843.20;;;;;;5093642;28;20494;-74
2021/04/04 01:10:12;;;;;;;6.18;4.50;;;154.30;1843.20;;;;;;5094056;28;20356;-74
2021/04/04 01:12:59;;;;;;;12.57;6.55;;;154.30;1843.20;;;;;;5093449;28;20337;-77
2021/04/04 01:15:31;;;;;;;9.63;5.50;;;154.20;1843.20;;;;;;5093489;28;20360;-74
2021/04/04 01:18:07;;;;;;;8.23;5.95;;;154.20;1843.20;;;;;;5094289;28;20345;-74
2021/04/04 01:20:47;;;;;;;8.70;5.68;;;154.10;1843.20;;;;;;5093482;28;20364;-73
2021/04/04 01:23:51;;;;;;;8.73;6.10;;;154.10;1868.80;;;;;;5093277;28;20416;-74
2021/04/04 01:26:29;;;;;;;8.90;5.72;;;154.10;1868.80;;;;;;5052258;28;20473;-73
2021/04/04 01:28:57;;;;;;;10.45;7.28;;;154.10;1868.80;;;;;;5075301;28;20020;-73
2021/04/04 01:31:25;;;;;;;11.40;6.90;;;154.10;1843.20;;;;;;5093296;28;20464;-72
2021/04/04 01:33:54;;;;;;;14.30;7.70;;;154.10;1868.80;;;;;;5093310;28;20012;-75
2021/04/04 01:36:22;;;;;;;13.40;7.28;;;154.00;1868.80;;;;;;5093182;28;20057;-74
2021/04/04 01:38:50;;;;;;;9.25;5.75;;;154.10;1868.80;;;;;;5093249;28;20436;-74
2021/04/04 01:41:27;;;;;;;9.45;6.10;;;153.90;1868.80;;;;;;5075154;28;20368;-74
2021/04/04 01:44:23;;;;;;;7.00;5.50;;;154.00;1894.40;;;;;;5093522;28;20368;-74
2021/04/04 01:46:52;;;;;;;9.38;5.03;;;154.00;1868.80;;;;;;5011435;28;20362;-77
2021/04/04 01:49:20;;;;;;;8.93;5.40;;;153.90;1868.80;;;;;;5011268;28;20377;-75
2021/04/04 01:51:47;;;;;;;7.82;5.43;;;153.90;1868.80;;;;;;5011381;28;20418;-75
2021/04/04 01:54:17;;;;;;;9.32;5.57;;;153.90;1894.40;;;;;;5011301;28;20449;-73
2021/04/04 01:56:44;;;;;;;9.52;5.80;;;154.00;1894.40;;;;;;5011237;28;20522;-76
2021/04/04 01:59:13;;;;;;;10.02;6.18;;;153.90;1894.40;;;;;;5015169;28;20518;-78
2021/04/04 02:01:43;;;;;;;8.23;5.93;;;153.90;1894.40;;;;;;5015024;28;20110;-75
2021/04/04 02:04:09;;;;;;;10.55;6.13;;;153.90;1894.40;;;;;;5015331;28;20482;-73
2021/04/04 02:06:41;;;;;;;9.43;5.97;;;153.70;1894.40;;;;;;5014942;28;20459;-76
2021/04/04 02:09:10;;;;;;;10.25;6.82;;;153.60;1920.00;;;;;;5014756;28;20414;-74
2021/04/04 02:11:39;;;;;;;13.32;7.30;;;153.60;1945.60;;;;;;4998229;28;20394;-76
2021/04/04 02:14:14;;;;;;;8.13;5.90;;;128.90;1945.60;;;;;;5014681;28;20054;-74
2021/04/04 02:16:44;;;;;;;10.27;6.45;;;128.80;1945.60;;;;;;5014802;28;20541;-75
2021/04/04 02:19:15;;;;;;;10.13;7.07;;;128.80;1945.60;;;;;;5014868;28;20478;-74
2021/04/04 02:21:42;;;;;;;9.25;6.40;;;128.80;1945.60;;;;;;5014907;28;20390;-73
2021/04/04 02:24:09;;;;;;;8.18;5.43;;;128.70;1971.20;;;;;;5070530;28;20444;-74
2021/04/04 02:26:36;;;;;;;8.40;5.57;;;128.80;1971.20;;;;;;5076204;28;20400;-73
2021/04/04 02:29:03;;;;;;;10.13;6.00;;;128.70;1971.20;;;;;;5076114;28;20457;-75
2021/04/04 02:31:35;;;;;;;9.70;6.60;;;128.80;1971.20;;;;;;5076137;28;20361;-74
2021/04/04 02:34:06;;;;;;;9.00;6.30;;;128.80;1971.20;;;;;;5076341;28;20361;-74
2021/04/04 02:36:33;;;;;;;9.70;6.38;;;128.80;1971.20;;;;;;5076557;28;20345;-74
2021/04/04 02:39:27;;;;;;;9.02;6.68;;;128.70;1971.20;;;;;;5076320;28;20349;-77
2021/04/04 02:41:54;;;;;;;10.98;6.63;;;128.70;1996.80;;;;;;5075960;28;20409;-74
2021/04/04 02:44:22;;;;;;;10.73;7.65;;;128.70;1996.80;;;;;;5075774;28;20377;-75
2021/04/04 02:46:54;;;;;;;11.85;7.70;;;128.70;1996.80;;;;;;5074578;28;20433;-73
2021/04/04 02:49:22;;;;;;;9.63;7.32;;;128.60;2022.40;;;;;;5076080;28;20349;-74
2021/04/04 02:51:52;;;;;;;10.82;7.18;;;128.60;2022.40;;;;;;5076248;28;20346;-73
2021/04/04 02:54:25;;;;;;;11.75;7.30;;;128.50;2022.40;;;;;;5076001;28;20367;-76
2021/04/04 02:56:53;;;;;;;11.30;6.63;;;128.60;2022.40;;;;;;5074160;28;20385;-74
2021/04/04 02:59:49;;;;;;;11.80;7.10;;;128.60;2022.40;;;;;;5074294;28;20448;-73
2021/04/04 03:02:18;;;;;;;10.82;6.63;;;128.50;2022.40;;;;;;5075630;28;20430;-73
2021/04/04 03:04:47;;;;;;;9.57;6.33;;;128.50;2022.40;;;;;;5075409;28;20468;-75
2021/04/04 03:07:22;;;;;;;9.45;6.95;;;128.50;2048.00;;;;;;5074261;28;20404;-76
2021/04/04 03:09:51;;;;;;;9.95;7.03;;;128.50;2048.00;;;;;;5074460;28;20392;-73
2021/04/04 03:12:20;;;;;;;11.27;8.07;;;128.50;2048.00;;;;;;5075406;28;20465;-74
2021/04/04 03:14:48;;;;;;;9.73;7.10;;;128.50;2048.00;;;;;;5075284;28;20103;-75
2021/04/04 03:17:16;;;;;;;9.38;7.00;;;128.50;2048.00;;;;;;5073985;28;20485;-75
2021/04/04 03:19:45;;;;;;;9.43;6.60;;;128.50;2048.00;;;;;;5075186;28;20346;-75
2021/04/04 03:22:12;;;;;;;9.40;7.07;;;128.50;2048.00;;;;;;5075448;28;20457;-74
2021/04/04 03:24:39;;;;;;;9.60;6.88;;;128.50;2048.00;;;;;;5075030;28;20527;-76
2021/04/04 03:27:07;;;;;;;10.10;7.57;;;128.50;2048.00;;;;;;5075021;28;20369;-74
2021/04/04 03:29:34;;;;;;;12.13;7.43;;;128.70;2048.00;;;;;;5075008;28;20460;-74
2021/04/04 03:32:01;;;;;;;8.90;6.93;;;128.60;2048.00;;;;;;5075205;28;20457;-74
2021/04/04 03:34:28;;;;;;;9.93;7.80;;;128.50;2073.60;;;;;;5074862;28;20530;-75
2021/04/04 03:36:55;;;;;;;10.23;7.63;;;128.60;2099.20;;;;;;5074846;28;20368;-73
2021/04/04 03:39:26;;;;;;;9.93;8.18;;;128.70;2099.20;;;;;;5074817;28;20404;-74
2021/04/04 03:41:55;;;;;;;11.63;8.40;;;128.60;2099.20;;;;;;5074741;28;20373;-73
2021/04/04 03:44:23;;;;;;;11.73;8.45;;;128.70;2099.20;;;;;;5073280;28;20381;-73
2021/04/04 03:46:52;;;;;;;10.27;7.65;;;128.70;2099.20;;;;;;5074897;28;20361;-73
2021/04/04 03:49:20;;;;;;;9.57;7.93;;;128.80;2073.60;;;;;;5074638;28;20377;-76
2021/04/04 03:51:47;;;;;;;11.13;8.10;;;128.80;2073.60;;;;;;5075093;28;20382;-75
2021/04/04 03:54:16;;;;;;;10.82;8.02;;;128.80;2099.20;;;;;;5074498;28;20507;-72
2021/04/04 03:56:48;;;;;;;13.73;8.20;;;128.80;2099.20;;;;;;5092248;28;20384;-73
2021/04/04 03:59:16;;;;;;;11.13;8.45;;;128.90;2099.20;;;;;;5094669;28;20388;-72
2021/04/04 04:01:46;;;;;;;11.13;8.15;;;153.60;2073.60;;;;;;5094791;28;20364;-76
2021/04/04 04:04:14;;;;;;;12.50;9.18;;;128.90;2099.20;;;;;;5094796;28;20036;-74
2021/04/04 04:06:45;;;;;;;13.00;8.50;;;153.60;2099.20;;;;;;5094477;28;20402;-75
2021/04/04 04:09:18;;;;;;;11.48;8.55;;;153.60;2073.60;;;;;;5094750;28;20372;-74
2021/04/04 04:11:47;;;;;;;13.23;8.43;;;128.90;2073.60;;;;;;5094439;28;20044;-74
2021/04/04 04:14:19;;;;;;;14.02;9.07;;;128.80;2099.20;;;;;;5094611;28;20459;-74
2021/04/04 04:16:45;;;;;;;13.73;8.90;;;128.80;2099.20;;;;;;5094373;28;20352;-73
2021/04/04 04:19:12;;;;;;;13.23;8.88;;;128.70;2099.20;;;;;;5094500;28;20406;-73
2021/04/04 04:21:40;;;;;;;12.68;9.05;;;128.70;2099.20;;;;;;5094027;28;20506;-73
2021/04/04 04:24:12;;;;;;;10.65;7.57;;;128.70;2099.20;;;;;;5093995;28;20372;-75
2021/04/04 04:26:43;;;;;;;11.95;8.45;;;128.80;2099.20;;;;;;5094222;28;20418;-74
2021/04/04 04:29:17;;;;;;;26.10;15.50;;;128.60;2124.80;;;;;;5094029;28;20456;-75
2021/04/04 04:31:47;;;;;;;22.17;13.50;;;128.60;2124.80;;;;;;5094101;28;20376;-78
2021/04/04 04:34:14;;;;;;;15.73;10.48;;;128.60;2124.80;;;;;;5094006;28;20372;-75
2021/04/04 04:36:42;;;;;;;24.30;16.40;;;128.60;2124.80;;;;;;5094199;28;20457;-75
2021/04/04 04:39:10;;;;;;;41.10;21.40;;;128.60;2124.80;;;;;;5094230;28;20395;-75
2021/04/04 04:41:42;;;;;;;30.70;15.90;;;128.70;2124.80;;;;;;5093935;28;20368;-73
2021/04/04 04:44:08;;;;;;;39.33;18.45;;;128.60;2124.80;;;;;;5093757;28;20546;-73
2021/04/04 04:46:37;;;;;;;53.22;20.38;;;128.50;2150.40;;;;;;5093733;28;20060;-73
2021/04/04 04:49:05;;;;;;;47.95;20.50;;;128.50;2150.40;;;;;;5093769;28;20410;-75
2021/04/04 04:51:31;;;;;;;68.47;23.80;;;128.70;2150.40;;;;;;5093668;28;20431;-75
2021/04/04 04:53:57;;;;;;;61.97;21.23;;;128.70;2150.40;;;;;;5093719;28;20426;-75
2021/04/04 04:56:25;;;;;;;77.35;24.58;;;128.80;2150.40;;;;;;5093497;28;20093;-75
2021/04/04 04:58:52;;;;;;;52.00;22.10;;;128.90;2150.40;;;;;;5093667;28;20410;-73
2021/04/04 05:01:23;;;;;;;65.43;23.20;;;128.90;2150.40;;;;;;5093652;28;20448;-74
2021/04/04 05:03:50;;;;;;;64.00;22.42;;;153.60;2150.40;;;;;;5075360;28;20376;-73
2021/04/04 05:06:17;;;;;;;36.95;14.85;;;153.60;2150.40;;;;;;5093458;28;20422;-75
2021/04/04 05:08:45;;;;;;;41.95;15.60;;;153.70;2150.40;;;;;;5094116;28;20348;-74
2021/04/04 05:11:15;;;;;;;40.90;16.13;;;153.80;2150.40;;;;;;5093508;28;20408;-74
2021/04/04 05:13:42;;;;;;;23.70;12.48;;;153.80;2150.40;;;;;;5093478;28;20456;-75
2021/04/04 05:16:10;;;;;;;31.30;14.95;;;153.90;2150.40;;;;;;5093473;28;20485;-72
2021/04/04 05:18:37;;;;;;;41.53;14.52;;;154.00;2150.40;;;;;;5093425;28;20369;-74
2021/04/04 05:21:04;;;;;;;46.83;16.38;;;154.00;2124.80;;;;;;5075327;28;20501;-74
2021/04/04 05:23:30;;;;;;;38.50;17.13;;;154.10;2124.80;;;;;;5093250;28;20421;-75
2021/04/04 05:25:57;;;;;;;25.50;16.02;;;154.20;2124.80;;;;;;5093387;28;20020;-74
2021/04/04 05:28:23;;;;;;;17.10;11.57;;;154.20;2124.80;;;;;;5093377;28;20341;-74
2021/04/04 05:30:50;;;;;;;27.73;14.35;;;154.20;2124.80;;;;;;5093594;28;20376;-73
2021/04/04 05:33:16;;;;;;;17.23;11.70;;;154.20;2124.80;;;;;;5096054;28;20421;-73
2021/04/04 05:35:43;;;;;;;25.05;15.23;;;154.20;2124.80;;;;;;5097409;28;20458;-75
2021/04/04 05:38:11;;;;;;;19.30;10.88;;;154.20;2124.80;;;;;;5097425;28;20452;-73
2021/04/04 05:40:38;;;;;;;18.85;12.48;;;154.30;2099.20;;;;;;5078647;28;20414;-74
2021/04/04 05:43:13;;;;;;;19.25;11.73;;;154.30;2099.20;;;;;;5097214;28;20456;-74
2021/04/04 05:45:59;;;;;;;19.40;13.23;;;154.40;2099.20;;;;;;5097534;28;20522;-73
2021/04/04 05:48:37;;;;;;;16.75;10.05;;;154.50;2099.20;;;;;;5079139;28;20393;-73
2021/04/04 05:51:24;;;;;;;13.20;9.23;;;154.50;2099.20;;;;;;5097169;28;20498;-75
2021/04/04 05:54:02;;;;;;;20.85;12.05;;;154.50;2099.20;;;;;;5097359;28;20534;-76
2021/04/04 05:56:40;;;;;;;39.88;19.58;;;154.50;2073.60;;;;;;5096890;28;20445;-73
2021/04/04 05:59:13;;;;;;;32.17;20.77;;;154.50;2073.60;;;;;;5078836;28;20538;-74
2021/04/04 06:01:57;;;;;;;19.45;12.25;;;154.50;2073.60;;;;;;5097237;28;20592;-74
2021/04/04 06:04:43;;;;;;;;;;;179.20;2073.60;;;;;;5097290;28;20388;-72
2021/04/04 06:07:34;;;;;;;16.13;11.13;;;179.20;2073.60;;;;;;5082426;28;20328;-77
2021/04/04 06:13:35;;;;;;;16.20;10.18;;;179.30;2073.60;;;;;;5096780;28;20404;-73
2021/04/04 06:16:26;;;;;;;17.85;9.73;;;179.30;2048.00;;;;;;5096945;28;20479;-73
2021/04/04 06:19:12;;;;;;;21.00;10.30;;;179.40;2048.00;;;;;;5078608;28;20357;-76
2021/04/04 06:21:48;;;;;;;26.08;15.18;;;179.30;2022.40;;;;;;5096492;28;20510;-73
2021/04/04 06:24:33;;;;;;;18.58;10.68;;;179.30;2048.00;;;;;;5096742;28;20372;-75
2021/04/04 06:27:08;;;;;;;15.18;9.43;;;179.30;2048.00;;;;;;5096526;28;20549;-74
2021/04/04 06:30:04;;;;;;;14.70;9.10;;;179.40;2048.00;;;;;;5096674;28;20341;-72
2021/04/04 06:33:01;;;;;;;18.13;11.20;;;179.50;2048.00;;;;;;5096622;28;20461;-75
2021/04/04 06:35:40;;;;;;;17.92;10.23;;;179.70;2048.00;;;;;;5096572;28;20016;-74
2021/04/04 06:38:53;;;;;;;16.30;10.73;;;179.80;2022.40;;;;;;5096529;28;20482;-73
2021/04/04 06:41:48;;;;;;;20.02;12.88;;;179.90;2022.40;;;;;;5096227;28;20494;-73
2021/04/04 06:44:23;;;;;;;18.30;12.00;;;205.60;1920.00;;;;;;5088838;28;20376;-74
2021/04/04 06:47:07;;;;;;;23.60;14.43;;;282.50;1715.20;;;;;;5096235;28;20421;-71
2021/04/04 06:50:04;;;;;;;27.88;17.55;;;358.50;1459.20;;;;;;5096107;28;20359;-75
2021/04/04 06:52:34;;;;;;;11.05;6.93;;;384.70;1305.60;;;;;;5096365;28;20525;-78
2021/04/04 06:55:10;;;;;;;13.70;8.48;;;409.70;1228.80;;;;;;5096071;28;20058;-74
2021/04/04 06:58:13;;;;;;;11.70;7.65;;;359.10;1280.00;;;;;;5108521;22;20043;-68
2021/04/04 07:00:47;;;;;;;9.85;7.15;;;358.40;1356.80;;;;;;5095947;28;20371;-67
2021/04/04 07:03:23;;;;;;;12.48;7.20;;;308.10;1433.60;;;;;;5096128;28;20365;-68
2021/04/04 07:06:16;;;;;;;14.07;9.25;;;307.50;1510.40;;;;;;5096262;28;20341;-69
2021/04/04 07:09:16;;;;;;;16.73;11.00;;;282.40;1510.40;;;;;;5096346;28;20403;-68
2021/04/04 07:11:54;;;;;;;11.25;8.38;;;281.80;1587.20;;;;;;5077590;28;20666;-68
2021/04/04 07:14:57;;;;;;;16.02;10.05;;;281.70;1587.20;;;;;;5095844;28;20477;-66
2021/04/04 07:17:33;;;;;;;17.33;10.75;;;281.70;1612.80;;;;;;5095528;28;20349;-70
2021/04/04 07:20:14;;;;;;;11.70;8.05;;;282.10;1587.20;;;;;;5095508;28;20529;-68
2021/04/04 07:23:17;;;;;;;11.38;8.07;;;282.50;1561.60;;;;;;5096135;28;20521;-70
2021/04/04 07:25:57;;;;;;;12.15;9.18;;;307.50;1587.20;;;;;;5095453;28;20464;-68
2021/04/04 07:28:57;;;;;;;12.63;6.70;;;307.70;1536.00;;;;;;5095440;28;20365;-67
2021/04/04 07:31:29;;;;;;;9.73;6.45;;;307.70;1484.80;;;;;;5089277;28;20488;-69
2021/04/04 07:34:04;;;;;;;10.23;7.10;;;307.90;1484.80;;;;;;5095596;28;20040;-68
2021/04/04 07:36:54;;;;;;;10.57;7.97;;;307.90;1510.40;;;;;;5095235;28;20589;-67
2021/04/04 07:39:33;;;;;;;12.60;8.45;;;308.00;1510.40;;;;;;5095132;28;20376;-68
2021/04/04 07:42:19;;;;;;;11.82;8.70;;;308.10;1484.80;;;;;;5095395;28;20364;-68
2021/04/04 07:45:18;;;;;;;10.10;7.43;;;308.10;1459.20;;;;;;5095030;28;20380;-68
2021/04/04 07:47:54;;;;;;;13.23;8.68;;;307.90;1484.80;;;;;;5064333;28;20368;-69
2021/04/04 07:50:55;;;;;;;11.07;7.75;;;308.10;1459.20;;;;;;5095554;28;20518;-68
2021/04/04 07:53:34;;;;;;;10.52;7.13;;;333.00;1484.80;;;;;;5080779;28;20372;-67
2021/04/04 07:56:23;;;;;;;12.27;9.45;;;333.00;1459.20;;;;;;5094603;28;20417;-68
2021/04/04 07:59:14;;;;;;;14.98;10.38;;;308.10;1459.20;;;;;;5094736;28;20365;-67
2021/04/04 08:02:10;;;;;;;14.65;9.65;;;308.10;1484.80;;;;;;5094981;28;20360;-67
2021/04/04 08:04:48;;;;;;;12.48;9.98;;;307.80;1484.80;;;;;;5094954;28;20368;-70
2021/04/04 08:07:56;;;;;;;20.42;11.70;;;307.50;1459.20;;;;;;5094633;28;20356;-67
2021/04/04 08:10:36;;;;;;;20.52;11.10;;;307.40;1484.80;;;;;;5092802;28;20515;-68
2021/04/04 08:13:41;;;;;;;14.05;8.65;;;307.70;1433.60;;;;;;5094420;28;20341;-68
2021/04/04 08:16:28;;;;;;;41.83;25.85;;;307.70;1331.20;;;;;;5090486;28;20387;-66
2021/04/04 08:18:54;;;;;;;31.98;22.02;;;307.50;1382.40;;;;;;5094449;28;20364;-66
2021/04/04 08:21:39;;;;;;;13.27;10.32;;;307.60;1382.40;;;;;;5094294;28;20464;-67
2021/04/04 08:24:10;;;;;;;42.42;28.75;;;307.60;1382.40;;;;;;5094125;28;20353;-67
2021/04/04 08:26:47;;;;;;;17.38;14.23;;;307.60;1382.40;;;;;;5094368;28;20361;-67
2021/04/04 08:29:42;;;;;;;19.88;12.52;;;307.70;1382.40;;;;;;5094187;28;20445;-69
2021/04/04 08:32:13;;;;;;;41.53;25.95;;;308.10;1356.80;;;;;;5074287;28;20432;-67
2021/04/04 08:34:48;;;;;;;36.13;24.98;;;307.90;1356.80;;;;;;5094219;28;20403;-67
2021/04/04 08:37:43;;;;;;;19.83;14.18;;;307.70;1356.80;;;;;;5093936;28;20480;-67
2021/04/04 08:40:14;;;;;;;19.08;10.20;;;307.70;1356.80;;;;;;5091914;28;20468;-67
2021/04/04 08:42:42;;;;;;;17.65;10.82;;;307.80;1356.80;;;;;;5094315;28;20413;-68
2021/04/04 08:45:10;;;;;;;23.67;15.25;;;307.90;1356.80;;;;;;5093898;28;20349;-67
2021/04/04 08:47:41;;;;;;;15.18;10.38;;;308.00;1382.40;;;;;;5094212;28;20031;-67
2021/04/04 08:50:14;;;;;;;18.80;12.60;;;332.80;1356.80;;;;;;5093970;28;20539;-67
2021/04/04 08:53:02;;;;;;;19.63;13.95;;;333.00;1356.80;;;;;;5093991;28;20412;-67
2021/04/04 08:55:29;;;;;;;11.73;8.60;;;333.20;1356.80;;;;;;5093865;28;20020;-67
2021/04/04 08:58:00;;;;;;;13.07;8.82;;;333.10;1305.60;;;;;;5073874;28;20477;-67
2021/04/04 09:00:30;;;;;;;15.07;7.47;;;333.00;1280.00;;;;;;5073578;28;20439;-67
2021/04/04 09:03:20;;;;;;;10.70;8.27;;;308.10;1228.80;;;;;;5073491;28;20373;-67
2021/04/04 09:05:48;;;;;;;15.38;10.52;;;307.60;1280.00;;;;;;5066095;28;20037;-67
2021/04/04 09:08:15;;;;;;;25.38;12.52;;;307.40;1305.60;;;;;;5072885;28;20361;-67
2021/04/04 09:10:45;;;;;;;30.45;12.63;;;307.20;1331.20;;;;;;5074032;28;20349;-66
2021/04/04 09:13:13;;;;;;;20.70;10.50;;;307.20;1331.20;;;;;;5073412;28;20360;-70
2021/04/04 09:16:08;;;;;;;15.88;9.60;;;282.50;1331.20;;;;;;5073374;28;20353;-66
2021/04/04 09:18:42;;;;;;;18.50;12.07;;;282.40;1356.80;;;;;;5071608;28;20477;-66
2021/04/04 09:21:09;;;;;;;14.05;8.93;;;282.40;1356.80;;;;;;5073359;28;20368;-66
2021/04/04 09:23:37;;;;;;;16.83;10.18;;;282.30;1331.20;;;;;;5073316;28;20346;-67
2021/04/04 09:26:07;;;;;;;20.17;10.00;;;282.30;1356.80;;;;;;5073374;28;20365;-66
2021/04/04 09:28:39;;;;;;;21.45;12.48;;;282.30;1305.60;;;;;;5073278;28;20481;-69
2021/04/04 09:31:27;;;;;;;30.80;15.65;;;282.30;1305.60;;;;;;5073177;28;20027;-66
2021/04/04 09:34:05;;;;;;;20.48;9.77;;;282.10;1305.60;;;;;;5073524;28;20469;-67
2021/04/04 09:36:41;;;;;;;26.15;15.32;;;282.10;1331.20;;;;;;5073258;28;20361;-69
2021/04/04 09:39:10;;;;;;;15.50;9.45;;;282.10;1356.80;;;;;;5073262;28;20361;-65
2021/04/04 09:41:38;;;;;;;22.85;11.70;;;282.10;1356.80;;;;;;5073213;28;20453;-66
2021/04/04 09:44:06;;;;;;;30.80;18.27;;;282.20;1356.80;;;;;;5073013;28;20477;-67
2021/04/04 09:46:33;;;;;;;22.42;13.07;;;282.30;1331.20;;;;;;5073346;28;20330;-66
2021/04/04 09:48:59;;;;;;;60.03;29.95;;;282.40;1331.20;;;;;;5073091;28;20400;-66
2021/04/04 09:51:26;;;;;;;16.20;9.65;;;282.50;1331.20;;;;;;5073361;28;20028;-66
2021/04/04 09:53:53;;;;;;;18.20;11.48;;;282.50;1305.60;;;;;;5073014;28;20413;-66
2021/04/04 09:56:30;;;;;;;17.65;9.80;;;307.20;1331.20;;;;;;5079814;28;20392;-67
2021/04/04 09:58:57;;;;;;;13.10;8.48;;;282.50;1305.60;;;;;;5093190;28;20361;-67
2021/04/04 10:01:26;;;;;;;19.42;12.35;;;282.50;1305.60;;;;;;5093117;28;20364;-68
2021/04/04 10:04:06;;;;;;;34.20;19.75;;;282.50;1331.20;;;;;;5093311;28;20376;-66
2021/04/04 10:06:35;;;;;;;26.10;17.30;;;282.50;1331.20;;;;;;5093049;28;20446;-67
2021/04/04 10:09:04;;;;;;;23.00;14.15;;;282.40;1331.20;;;;;;5093058;28;20470;-66
2021/04/04 10:11:32;;;;;;;12.00;6.72;;;282.50;1356.80;;;;;;5093606;28;20457;-67
2021/04/04 10:14:19;;;;;;;14.95;10.88;;;282.50;1305.60;;;;;;5092970;28;20373;-67
2021/04/04 10:16:45;;;;;;;6.60;4.88;;;282.40;1305.60;;;;;;5093191;28;20479;-67
2021/04/04 10:19:16;;;;;;;10.15;5.10;;;282.40;1305.60;;;;;;5095789;28;20361;-67
2021/04/04 10:22:01;;;;;;;24.05;13.05;;;282.40;1305.60;;;;;;5096805;28;20024;-67
2021/04/04 10:24:35;;;;;;;23.98;14.60;;;282.50;1305.60;;;;;;5096359;28;20357;-66
2021/04/04 10:27:23;;;;;;;19.30;12.45;;;307.20;1356.80;;;;;;5096457;28;20454;-68
2021/04/04 10:30:12;;;;;;;9.27;5.82;;;307.20;1356.80;;;;;;5096294;28;20376;-66
2021/04/04 10:32:45;;;;;;;8.80;5.18;;;307.20;1305.60;;;;;;5078716;28;20524;-67
2021/04/04 10:35:26;;;;;;;9.98;5.90;;;307.20;1305.60;;;;;;5096158;28;20401;-67
2021/04/04 10:38:04;;;;;;;10.48;5.93;;;307.20;1331.20;;;;;;5096542;28;20380;-66
2021/04/04 10:40:53;;;;;;;44.25;22.95;;;282.50;1356.80;;;;;;5096488;28;20028;-67
2021/04/04 10:43:33;;;;;;;25.85;12.48;;;282.40;1382.40;;;;;;5096087;28;20470;-66
2021/04/04 10:46:10;;;;;;;35.50;18.70;;;282.20;1408.00;;;;;;5095888;28;20384;-67
2021/04/04 10:48:49;;;;;;;48.15;26.77;;;282.10;1433.60;;;;;;5095960;28;20353;-67
2021/04/04 10:51:17;;;;;;;19.75;11.60;;;282.00;1459.20;;;;;;5096361;28;20364;-67
2021/04/04 10:53:44;;;;;;;28.52;17.33;;;282.00;1484.80;;;;;;5096201;28;20376;-70
2021/04/04 10:56:13;;;;;;;17.02;9.55;;;282.00;1459.20;;;;;;5074452;28;20506;-67
2021/04/04 10:58:40;;;;;;;19.65;9.25;;;282.10;1459.20;;;;;;5074386;28;20372;-66
2021/04/04 11:01:10;;;;;;;21.23;11.20;;;282.10;1433.60;;;;;;5075726;28;20504;-67
2021/04/04 11:03:37;;;;;;;32.47;15.02;;;282.30;1433.60;;;;;;5076154;28;20158;-68
2021/04/04 11:06:05;;;;;;;25.98;11.23;;;282.30;1408.00;;;;;;5075643;28;20471;-67
2021/04/04 11:08:32;;;;;;;23.17;9.90;;;282.30;1408.00;;;;;;5075659;28;20368;-68
2021/04/04 11:11:01;;;;;;;32.55;14.60;;;282.30;1382.40;;;;;;5075589;28;20416;-68
2021/04/04 11:13:29;;;;;;;21.52;9.75;;;282.20;1408.00;;;;;;5074162;28;20451;-69
2021/04/04 11:16:05;;;;;;;15.77;7.25;;;282.30;1408.00;;;;;;5075436;28;20365;-68
2021/04/04 11:18:40;;;;;;;15.27;8.23;;;282.20;1382.40;;;;;;5075457;28;20493;-68
2021/04/04 11:21:41;;;;;;;31.52;16.98;;;282.20;1408.00;;;;;;5074122;28;20464;-67
2021/04/04 11:24:27;;;;;;;38.85;18.27;;;282.20;1433.60;;;;;;5067322;28;20047;-68
2021/04/04 11:26:58;;;;;;;35.83;19.40;;;282.20;1433.60;;;;;;5075299;28;20422;-68
2021/04/04 11:29:27;;;;;;;32.00;16.67;;;282.20;1433.60;;;;;;5074649;28;20479;-69
2021/04/04 11:32:14;;;;;;;17.83;8.63;;;282.30;1408.00;;;;;;5075032;28;20364;-69
2021/04/04 11:34:43;;;;;;;17.65;8.50;;;282.40;1382.40;;;;;;5075098;28;20369;-69
2021/04/04 11:37:12;;;;;;;16.33;7.97;;;282.40;1356.80;;;;;;5074958;28;20013;-69
2021/04/04 11:39:41;;;;;;;15.27;9.10;;;282.40;1356.80;;;;;;5075010;28;20399;-69
2021/04/04 11:42:19;;;;;;;20.27;9.30;;;282.30;1382.40;;;;;;5074977;28;20434;-70
2021/04/04 11:44:53;;;;;;;16.50;8.18;;;282.20;1382.40;;;;;;5074757;28;20419;-69
2021/04/04 11:47:19;;;;;;;;;;;282.10;1382.40;;;;;;5075326;28;20334;-69
2021/04/04 11:49:48;;;;;;;18.85;9.70;;;282.10;1382.40;;;;;;5074849;28;19900;-71
2021/04/04 11:52:17;;;;;;;15.38;8.93;;;282.10;1382.40;;;;;;5074977;28;20357;-70
2021/04/04 11:54:50;;;;;;;16.60;11.98;;;282.00;1382.40;;;;;;5074982;28;20372;-70
2021/04/04 11:57:21;;;;;;;18.88;10.88;;;282.00;1382.40;;;;;;5089279;28;20494;-70
2021/04/04 11:59:57;;;;;;;42.42;23.90;;;282.00;1382.40;;;;;;5094682;28;20372;-71
2021/04/04 12:02:25;;;;;;;35.63;16.38;;;282.10;1382.40;;;;;;5095073;28;20368;-68
2021/04/04 12:05:10;;;;;;;95.85;39.15;;;282.10;1382.40;;;;;;5094572;28;20369;-69
2021/04/04 12:07:48;;;;;;;177.80;65.60;;;282.10;1356.80;;;;;;5094476;28;20027;-72
2021/04/04 12:10:20;;;;;;;57.42;26.58;;;282.20;1382.40;;;;;;5094708;28;20364;-68
2021/04/04 12:12:46;;;;;;;21.27;10.93;;;282.30;1382.40;;;;;;5094465;28;20479;-69
2021/04/04 12:15:14;;;;;;;68.63;25.83;;;282.30;1356.80;;;;;;5094681;28;20334;-70
2021/04/04 12:17:52;;;;;;;46.92;21.58;;;282.40;1356.80;;;;;;5094293;28;20534;-69
2021/04/04 12:20:32;;;;;;;118.80;39.38;;;282.40;1356.80;;;;;;5094412;28;20360;-68
2021/04/04 12:22:58;;;;;;;33.85;17.02;;;282.40;1356.80;;;;;;5094257;28;20372;-69
2021/04/04 12:25:29;;;;;;;148.02;51.75;;;282.40;1356.80;;;;;;5094429;28;20417;-69
2021/04/04 12:27:57;;;;;;;199.80;65.43;;;282.50;1356.80;;;;;;5094785;28;20573;-67
2021/04/04 12:30:36;;;;;;;116.50;42.00;;;282.40;1331.20;;;;;;5094387;28;20360;-67
2021/04/04 12:33:20;;;;;;;103.97;38.13;;;282.40;1305.60;;;;;;5094048;28;20333;-69
2021/04/04 12:35:47;;;;;;;;;;;282.40;1305.60;;;;;;5094368;28;20473;-68
2021/04/04 12:38:28;;;;;;;50.45;20.30;;;282.40;1305.60;;;;;;5094027;28;20330;-69
2021/04/04 12:40:56;;;;;;;36.42;17.83;;;282.40;1305.60;;;;;;5094342;28;20359;-72
2021/04/04 12:43:23;;;;;;;36.35;20.23;;;282.30;1331.20;;;;;;5075617;28;20349;-68